sensor_id;sensor_type;location;lat;lon;timestamp;temperature;humidity
64924;HTU21D;51436;44.692;39.214;2024-03-02T00:00:20;3.99;58.30
64924;HTU21D;51436;44.692;39.214;2024-03-02T00:02:51;4.00;58.24
64924;HTU21D;51436;44.692;39.214;2024-03-02T00:05:18;3.93;58.34
64924;HTU21D;51436;44.692;39.214;2024-03-02T00:07:46;3.85;58.54
64924;HTU21D;51436;44.692;39.214;2024-03-02T00:10:20;3.77;58.68
64924;HTU21D;51436;44.692;39.214;2024-03-02T00:12:51;3.75;58.77
64924;HTU21D;51436;44.692;39.214;2024-03-02T00:18:05;3.70;58.79
64924;HTU21D;51436;44.692;39.214;2024-03-02T00:20:31;3.59;58.98
64924;HTU21D;51436;44.692;39.214;2024-03-02T00:23:06;3.56;59.00
64924;HTU21D;51436;44.692;39.214;2024-03-02T00:25:50;3.53;59.01
64924;HTU21D;51436;44.692;39.214;2024-03-02T00:31:19;3.57;58.87
64924;HTU21D;51436;44.692;39.214;2024-03-02T00:34:07;3.52;58.91
64924;HTU21D;51436;44.692;39.214;2024-03-02T00:36:34;3.44;59.10
64924;HTU21D;51436;44.692;39.214;2024-03-02T00:39:00;3.49;58.99
64924;HTU21D;51436;44.692;39.214;2024-03-02T00:41:30;3.52;58.85
64924;HTU21D;51436;44.692;39.214;2024-03-02T00:44:04;3.54;58.74
64924;HTU21D;51436;44.692;39.214;2024-03-02T00:46:36;3.53;58.75
64924;HTU21D;51436;44.692;39.214;2024-03-02T00:49:04;3.49;58.78
64924;HTU21D;51436;44.692;39.214;2024-03-02T00:51:32;3.40;58.98
64924;HTU21D;51436;44.692;39.214;2024-03-02T00:54:01;3.33;59.16
64924;HTU21D;51436;44.692;39.214;2024-03-02T00:56:31;3.30;59.22
64924;HTU21D;51436;44.692;39.214;2024-03-02T00:58:57;3.29;59.24
64924;HTU21D;51436;44.692;39.214;2024-03-02T01:01:27;3.27;59.16
64924;HTU21D;51436;44.692;39.214;2024-03-02T01:03:53;3.23;59.25
64924;HTU21D;51436;44.692;39.214;2024-03-02T01:06:19;3.18;59.34
64924;HTU21D;51436;44.692;39.214;2024-03-02T01:08:46;3.15;59.39
64924;HTU21D;51436;44.692;39.214;2024-03-02T01:11:17;3.10;59.42
64924;HTU21D;51436;44.692;39.214;2024-03-02T01:13:45;3.06;59.47
64924;HTU21D;51436;44.692;39.214;2024-03-02T01:16:12;3.03;59.48
64924;HTU21D;51436;44.692;39.214;2024-03-02T01:18:38;3.02;59.53
64924;HTU21D;51436;44.692;39.214;2024-03-02T01:21:05;3.00;59.51
64924;HTU21D;51436;44.692;39.214;2024-03-02T01:23:31;2.96;59.54
64924;HTU21D;51436;44.692;39.214;2024-03-02T01:25:58;3.00;59.47
64924;HTU21D;51436;44.692;39.214;2024-03-02T01:28:24;3.00;59.36
64924;HTU21D;51436;44.692;39.214;2024-03-02T01:30:50;2.98;59.41
64924;HTU21D;51436;44.692;39.214;2024-03-02T01:33:17;2.95;59.48
64924;HTU21D;51436;44.692;39.214;2024-03-02T01:35:48;2.94;59.43
64924;HTU21D;51436;44.692;39.214;2024-03-02T01:38:14;2.91;59.50
64924;HTU21D;51436;44.692;39.214;2024-03-02T01:40:42;2.87;59.52
64924;HTU21D;51436;44.692;39.214;2024-03-02T01:43:32;2.88;59.47
64924;HTU21D;51436;44.692;39.214;2024-03-02T01:45:59;2.86;59.49
64924;HTU21D;51436;44.692;39.214;2024-03-02T01:48:25;2.82;59.53
64924;HTU21D;51436;44.692;39.214;2024-03-02T01:50:52;2.74;59.65
64924;HTU21D;51436;44.692;39.214;2024-03-02T01:53:18;2.73;59.70
64924;HTU21D;51436;44.692;39.214;2024-03-02T01:55:45;2.78;59.60
64924;HTU21D;51436;44.692;39.214;2024-03-02T01:58:11;2.81;59.44
64924;HTU21D;51436;44.692;39.214;2024-03-02T02:00:38;2.81;59.41
64924;HTU21D;51436;44.692;39.214;2024-03-02T02:03:04;2.81;59.37
64924;HTU21D;51436;44.692;39.214;2024-03-02T02:05:30;2.73;59.44
64924;HTU21D;51436;44.692;39.214;2024-03-02T02:07:57;2.71;59.57
64924;HTU21D;51436;44.692;39.214;2024-03-02T02:10:24;2.71;59.56
64924;HTU21D;51436;44.692;39.214;2024-03-02T02:12:50;2.74;59.45
64924;HTU21D;51436;44.692;39.214;2024-03-02T02:15:27;2.75;59.38
64924;HTU21D;51436;44.692;39.214;2024-03-02T02:17:54;2.78;59.32
64924;HTU21D;51436;44.692;39.214;2024-03-02T02:20:21;2.78;59.32
64924;HTU21D;51436;44.692;39.214;2024-03-02T02:23:01;2.78;59.25
64924;HTU21D;51436;44.692;39.214;2024-03-02T02:25:29;2.75;59.26
64924;HTU21D;51436;44.692;39.214;2024-03-02T02:27:55;2.73;59.32
64924;HTU21D;51436;44.692;39.214;2024-03-02T02:30:25;2.74;59.34
64924;HTU21D;51436;44.692;39.214;2024-03-02T02:32:51;2.74;59.31
64924;HTU21D;51436;44.692;39.214;2024-03-02T02:35:18;2.75;59.29
64924;HTU21D;51436;44.692;39.214;2024-03-02T02:37:45;2.74;59.27
64924;HTU21D;51436;44.692;39.214;2024-03-02T02:40:13;2.71;59.35
64924;HTU21D;51436;44.692;39.214;2024-03-02T02:42:39;2.66;59.42
64924;HTU21D;51436;44.692;39.214;2024-03-02T02:45:09;2.57;59.58
64924;HTU21D;51436;44.692;39.214;2024-03-02T02:47:59;2.47;59.83
64924;HTU21D;51436;44.692;39.214;2024-03-02T02:50:27;2.45;59.87
64924;HTU21D;51436;44.692;39.214;2024-03-02T02:52:54;2.45;59.78
64924;HTU21D;51436;44.692;39.214;2024-03-02T02:55:20;2.41;59.84
64924;HTU21D;51436;44.692;39.214;2024-03-02T02:57:46;2.43;59.77
64924;HTU21D;51436;44.692;39.214;2024-03-02T03:00:36;2.42;59.72
64924;HTU21D;51436;44.692;39.214;2024-03-02T03:03:02;2.39;59.81
64924;HTU21D;51436;44.692;39.214;2024-03-02T03:05:29;2.38;59.79
64924;HTU21D;51436;44.692;39.214;2024-03-02T03:07:55;2.36;59.81
64924;HTU21D;51436;44.692;39.214;2024-03-02T03:10:21;2.30;59.91
64924;HTU21D;51436;44.692;39.214;2024-03-02T03:12:49;2.26;59.96
64924;HTU21D;51436;44.692;39.214;2024-03-02T03:15:15;2.25;59.98
64924;HTU21D;51436;44.692;39.214;2024-03-02T03:17:45;2.20;60.02
64924;HTU21D;51436;44.692;39.214;2024-03-02T03:20:13;2.17;60.05
64924;HTU21D;51436;44.692;39.214;2024-03-02T03:22:41;2.19;59.99
64924;HTU21D;51436;44.692;39.214;2024-03-02T03:25:10;2.15;59.96
64924;HTU21D;51436;44.692;39.214;2024-03-02T03:27:37;2.17;59.93
64924;HTU21D;51436;44.692;39.214;2024-03-02T03:30:06;2.17;59.86
64924;HTU21D;51436;44.692;39.214;2024-03-02T03:32:33;2.20;59.83
64924;HTU21D;51436;44.692;39.214;2024-03-02T03:34:59;2.25;59.70
64924;HTU21D;51436;44.692;39.214;2024-03-02T03:37:25;2.27;59.64
64924;HTU21D;51436;44.692;39.214;2024-03-02T03:40:16;2.23;59.67
64924;HTU21D;51436;44.692;39.214;2024-03-02T03:42:44;2.22;59.75
64924;HTU21D;51436;44.692;39.214;2024-03-02T03:45:10;2.23;59.73
64924;HTU21D;51436;44.692;39.214;2024-03-02T03:47:37;2.21;59.73
64924;HTU21D;51436;44.692;39.214;2024-03-02T03:50:04;2.19;59.77
64924;HTU21D;51436;44.692;39.214;2024-03-02T03:52:33;2.17;59.80
64924;HTU21D;51436;44.692;39.214;2024-03-02T03:55:02;2.22;59.70
64924;HTU21D;51436;44.692;39.214;2024-03-02T03:57:28;2.19;59.71
64924;HTU21D;51436;44.692;39.214;2024-03-02T03:59:55;2.17;59.74
64924;HTU21D;51436;44.692;39.214;2024-03-02T04:02:21;2.13;59.80
64924;HTU21D;51436;44.692;39.214;2024-03-02T04:04:47;2.13;59.82
64924;HTU21D;51436;44.692;39.214;2024-03-02T04:07:14;2.12;59.81
64924;HTU21D;51436;44.692;39.214;2024-03-02T04:09:40;2.13;59.80
64924;HTU21D;51436;44.692;39.214;2024-03-02T04:12:07;2.09;59.86
64924;HTU21D;51436;44.692;39.214;2024-03-02T04:14:33;2.09;59.85
64924;HTU21D;51436;44.692;39.214;2024-03-02T04:17:02;2.13;59.76
64924;HTU21D;51436;44.692;39.214;2024-03-02T04:19:29;2.21;59.61
64924;HTU21D;51436;44.692;39.214;2024-03-02T04:21:55;2.27;59.48
64924;HTU21D;51436;44.692;39.214;2024-03-02T04:24:22;2.28;59.44
64924;HTU21D;51436;44.692;39.214;2024-03-02T04:26:48;2.32;59.35
64924;HTU21D;51436;44.692;39.214;2024-03-02T04:29:14;2.35;59.28
64924;HTU21D;51436;44.692;39.214;2024-03-02T04:31:41;2.34;59.36
64924;HTU21D;51436;44.692;39.214;2024-03-02T04:34:07;2.36;59.38
64924;HTU21D;51436;44.692;39.214;2024-03-02T04:36:54;2.40;59.26
64924;HTU21D;51436;44.692;39.214;2024-03-02T04:39:20;2.47;59.13
64924;HTU21D;51436;44.692;39.214;2024-03-02T04:41:46;2.55;58.96
64924;HTU21D;51436;44.692;39.214;2024-03-02T04:44:13;2.60;58.89
64924;HTU21D;51436;44.692;39.214;2024-03-02T04:46:40;2.69;58.71
64924;HTU21D;51436;44.692;39.214;2024-03-02T04:49:06;2.79;58.51
64924;HTU21D;51436;44.692;39.214;2024-03-02T04:51:33;2.87;58.38
64924;HTU21D;51436;44.692;39.214;2024-03-02T04:54:00;2.96;58.22
64924;HTU21D;51436;44.692;39.214;2024-03-02T04:56:29;3.01;58.09
64924;HTU21D;51436;44.692;39.214;2024-03-02T04:58:59;3.08;58.03
64924;HTU21D;51436;44.692;39.214;2024-03-02T05:01:25;3.01;58.21
64924;HTU21D;51436;44.692;39.214;2024-03-02T05:03:51;3.01;58.32
64924;HTU21D;51436;44.692;39.214;2024-03-02T05:06:18;3.09;58.20
64924;HTU21D;51436;44.692;39.214;2024-03-02T05:08:44;3.17;58.06
64924;HTU21D;51436;44.692;39.214;2024-03-02T05:11:11;3.23;58.01
64924;HTU21D;51436;44.692;39.214;2024-03-02T05:13:56;3.20;58.10
64924;HTU21D;51436;44.692;39.214;2024-03-02T05:16:22;3.25;58.15
64924;HTU21D;51436;44.692;39.214;2024-03-02T05:18:48;3.28;58.09
64924;HTU21D;51436;44.692;39.214;2024-03-02T05:21:15;3.31;58.08
64924;HTU21D;51436;44.692;39.214;2024-03-02T05:23:44;3.33;58.06
64924;HTU21D;51436;44.692;39.214;2024-03-02T05:26:10;3.42;57.93
64924;HTU21D;51436;44.692;39.214;2024-03-02T05:28:39;3.49;57.85
64924;HTU21D;51436;44.692;39.214;2024-03-02T05:31:05;3.57;57.71
64924;HTU21D;51436;44.692;39.214;2024-03-02T05:33:32;3.59;57.70
64924;HTU21D;51436;44.692;39.214;2024-03-02T05:35:59;3.57;57.85
64924;HTU21D;51436;44.692;39.214;2024-03-02T05:38:25;3.63;57.80
64924;HTU21D;51436;44.692;39.214;2024-03-02T05:40:51;3.76;57.58
64924;HTU21D;51436;44.692;39.214;2024-03-02T05:43:18;3.88;57.35
64924;HTU21D;51436;44.692;39.214;2024-03-02T05:45:44;3.97;57.24
64924;HTU21D;51436;44.692;39.214;2024-03-02T05:48:10;4.07;57.10
64924;HTU21D;51436;44.692;39.214;2024-03-02T05:50:37;4.16;57.00
64924;HTU21D;51436;44.692;39.214;2024-03-02T05:53:03;4.22;56.87
64924;HTU21D;51436;44.692;39.214;2024-03-02T05:55:29;4.23;56.96
64924;HTU21D;51436;44.692;39.214;2024-03-02T05:58:01;4.30;56.90
64924;HTU21D;51436;44.692;39.214;2024-03-02T06:00:46;4.33;56.97
64924;HTU21D;51436;44.692;39.214;2024-03-02T06:03:15;4.39;56.90
64924;HTU21D;51436;44.692;39.214;2024-03-02T06:05:42;4.49;56.79
64924;HTU21D;51436;44.692;39.214;2024-03-02T06:08:08;4.59;56.66
64924;HTU21D;51436;44.692;39.214;2024-03-02T06:10:34;4.71;56.49
64924;HTU21D;51436;44.692;39.214;2024-03-02T06:13:01;4.81;56.38
64924;HTU21D;51436;44.692;39.214;2024-03-02T06:15:27;4.88;56.34
64924;HTU21D;51436;44.692;39.214;2024-03-02T06:17:53;4.86;56.44
64924;HTU21D;51436;44.692;39.214;2024-03-02T06:20:19;4.86;56.58
64924;HTU21D;51436;44.692;39.214;2024-03-02T06:22:46;4.90;56.52
64924;HTU21D;51436;44.692;39.214;2024-03-02T06:25:12;4.94;56.45
64924;HTU21D;51436;44.692;39.214;2024-03-02T06:27:39;4.94;56.49
64924;HTU21D;51436;44.692;39.214;2024-03-02T06:30:05;4.97;56.46
64924;HTU21D;51436;44.692;39.214;2024-03-02T06:32:32;4.97;56.52
64924;HTU21D;51436;44.692;39.214;2024-03-02T06:34:58;4.89;56.69
64924;HTU21D;51436;44.692;39.214;2024-03-02T06:37:25;4.94;56.68
64924;HTU21D;51436;44.692;39.214;2024-03-02T06:39:55;4.94;56.61
64924;HTU21D;51436;44.692;39.214;2024-03-02T06:42:21;4.92;56.70
64924;HTU21D;51436;44.692;39.214;2024-03-02T06:44:47;4.94;56.68
64924;HTU21D;51436;44.692;39.214;2024-03-02T06:47:14;4.97;56.58
64924;HTU21D;51436;44.692;39.214;2024-03-02T06:49:42;5.01;56.67
64924;HTU21D;51436;44.692;39.214;2024-03-02T06:52:11;5.07;56.48
64924;HTU21D;51436;44.692;39.214;2024-03-02T06:54:41;5.15;56.40
64924;HTU21D;51436;44.692;39.214;2024-03-02T06:57:10;5.09;56.45
64924;HTU21D;51436;44.692;39.214;2024-03-02T06:59:39;5.08;56.58
64924;HTU21D;51436;44.692;39.214;2024-03-02T07:02:05;5.01;56.68
64924;HTU21D;51436;44.692;39.214;2024-03-02T07:04:31;5.00;56.77
64924;HTU21D;51436;44.692;39.214;2024-03-02T07:06:58;5.11;56.65
64924;HTU21D;51436;44.692;39.214;2024-03-02T07:09:24;5.19;56.49
64924;HTU21D;51436;44.692;39.214;2024-03-02T07:11:50;5.25;56.44
64924;HTU21D;51436;44.692;39.214;2024-03-02T07:14:17;5.32;56.35
64924;HTU21D;51436;44.692;39.214;2024-03-02T07:16:43;5.43;56.18
64924;HTU21D;51436;44.692;39.214;2024-03-02T07:19:09;5.45;56.17
64924;HTU21D;51436;44.692;39.214;2024-03-02T07:21:36;5.46;56.23
64924;HTU21D;51436;44.692;39.214;2024-03-02T07:24:02;5.51;56.15
64924;HTU21D;51436;44.692;39.214;2024-03-02T07:26:30;5.62;56.01
64924;HTU21D;51436;44.692;39.214;2024-03-02T07:28:57;5.62;56.04
64924;HTU21D;51436;44.692;39.214;2024-03-02T07:31:23;5.68;56.00
64924;HTU21D;51436;44.692;39.214;2024-03-02T07:33:49;5.75;55.95
64924;HTU21D;51436;44.692;39.214;2024-03-02T07:36:16;5.85;55.78
64924;HTU21D;51436;44.692;39.214;2024-03-02T07:38:43;5.97;55.66
64924;HTU21D;51436;44.692;39.214;2024-03-02T07:41:10;6.05;55.55
64924;HTU21D;51436;44.692;39.214;2024-03-02T07:43:37;6.11;55.49
64924;HTU21D;51436;44.692;39.214;2024-03-02T07:46:03;6.20;55.42
64924;HTU21D;51436;44.692;39.214;2024-03-02T07:48:30;6.25;55.38
64924;HTU21D;51436;44.692;39.214;2024-03-02T07:50:56;6.26;55.42
64924;HTU21D;51436;44.692;39.214;2024-03-02T07:53:23;6.22;55.55
64924;HTU21D;51436;44.692;39.214;2024-03-02T07:55:49;6.30;55.49
64924;HTU21D;51436;44.692;39.214;2024-03-02T07:58:16;6.35;55.43
64924;HTU21D;51436;44.692;39.214;2024-03-02T08:00:47;6.37;55.41
64924;HTU21D;51436;44.692;39.214;2024-03-02T08:03:16;6.41;55.42
64924;HTU21D;51436;44.692;39.214;2024-03-02T08:05:42;6.45;55.33
64924;HTU21D;51436;44.692;39.214;2024-03-02T08:08:10;6.42;55.43
64924;HTU21D;51436;44.692;39.214;2024-03-02T08:10:37;6.49;55.39
64924;HTU21D;51436;44.692;39.214;2024-03-02T08:13:04;6.58;55.28
64924;HTU21D;51436;44.692;39.214;2024-03-02T08:15:31;6.67;55.15
64924;HTU21D;51436;44.692;39.214;2024-03-02T08:17:57;6.70;55.13
64924;HTU21D;51436;44.692;39.214;2024-03-02T08:20:47;6.70;55.20
64924;HTU21D;51436;44.692;39.214;2024-03-02T08:23:13;6.78;55.16
64924;HTU21D;51436;44.692;39.214;2024-03-02T08:25:40;6.83;55.11
64924;HTU21D;51436;44.692;39.214;2024-03-02T08:28:06;6.89;55.04
64924;HTU21D;51436;44.692;39.214;2024-03-02T08:30:32;6.93;55.03
64924;HTU21D;51436;44.692;39.214;2024-03-02T08:32:59;6.94;55.03
64924;HTU21D;51436;44.692;39.214;2024-03-02T08:35:26;6.97;55.08
64924;HTU21D;51436;44.692;39.214;2024-03-02T08:37:54;7.03;54.95
64924;HTU21D;51436;44.692;39.214;2024-03-02T08:40:21;7.12;54.86
64924;HTU21D;51436;44.692;39.214;2024-03-02T08:42:47;7.16;54.83
64924;HTU21D;51436;44.692;39.214;2024-03-02T08:45:14;7.24;54.75
64924;HTU21D;51436;44.692;39.214;2024-03-02T08:47:40;7.31;54.68
64924;HTU21D;51436;44.692;39.214;2024-03-02T08:50:07;7.39;54.59
64924;HTU21D;51436;44.692;39.214;2024-03-02T08:52:34;7.48;54.49
64924;HTU21D;51436;44.692;39.214;2024-03-02T08:55:01;7.58;54.38
64924;HTU21D;51436;44.692;39.214;2024-03-02T08:57:28;7.60;54.35
64924;HTU21D;51436;44.692;39.214;2024-03-02T08:59:54;7.61;54.42
64924;HTU21D;51436;44.692;39.214;2024-03-02T09:02:21;7.64;54.47
64924;HTU21D;51436;44.692;39.214;2024-03-02T09:04:47;7.72;54.42
64924;HTU21D;51436;44.692;39.214;2024-03-02T09:07:18;7.79;54.32
64924;HTU21D;51436;44.692;39.214;2024-03-02T09:09:44;7.88;54.24
64924;HTU21D;51436;44.692;39.214;2024-03-02T09:12:11;8.00;54.13
64924;HTU21D;51436;44.692;39.214;2024-03-02T09:14:38;8.08;53.97
64924;HTU21D;51436;44.692;39.214;2024-03-02T09:17:05;8.20;53.84
64924;HTU21D;51436;44.692;39.214;2024-03-02T09:19:31;8.32;53.70
64924;HTU21D;51436;44.692;39.214;2024-03-02T09:21:57;8.41;53.60
64924;HTU21D;51436;44.692;39.214;2024-03-02T09:24:24;8.42;53.65
64924;HTU21D;51436;44.692;39.214;2024-03-02T09:26:51;8.52;53.59
64924;HTU21D;51436;44.692;39.214;2024-03-02T09:29:17;8.59;53.55
64924;HTU21D;51436;44.692;39.214;2024-03-02T09:31:46;8.67;53.49
64924;HTU21D;51436;44.692;39.214;2024-03-02T09:34:12;8.81;53.33
64924;HTU21D;51436;44.692;39.214;2024-03-02T09:36:43;8.85;53.32
64924;HTU21D;51436;44.692;39.214;2024-03-02T09:39:10;8.94;53.30
64924;HTU21D;51436;44.692;39.214;2024-03-02T09:41:37;9.03;53.13
64924;HTU21D;51436;44.692;39.214;2024-03-02T09:44:05;9.12;53.09
64924;HTU21D;51436;44.692;39.214;2024-03-02T09:46:32;9.21;53.02
64924;HTU21D;51436;44.692;39.214;2024-03-02T09:48:58;9.20;53.08
64924;HTU21D;51436;44.692;39.214;2024-03-02T09:51:25;9.30;53.04
64924;HTU21D;51436;44.692;39.214;2024-03-02T09:53:52;9.44;52.86
64924;HTU21D;51436;44.692;39.214;2024-03-02T09:56:21;9.52;52.80
64924;HTU21D;51436;44.692;39.214;2024-03-02T09:58:48;9.62;52.73
64924;HTU21D;51436;44.692;39.214;2024-03-02T10:01:14;9.62;52.78
64924;HTU21D;51436;44.692;39.214;2024-03-02T10:03:40;9.66;52.78
64924;HTU21D;51436;44.692;39.214;2024-03-02T10:06:25;9.72;52.75
64924;HTU21D;51436;44.692;39.214;2024-03-02T10:08:53;9.78;52.72
64924;HTU21D;51436;44.692;39.214;2024-03-02T10:11:35;9.86;52.70
64924;HTU21D;51436;44.692;39.214;2024-03-02T10:14:08;9.93;52.59
64924;HTU21D;51436;44.692;39.214;2024-03-02T10:16:45;10.01;52.52
64924;HTU21D;51436;44.692;39.214;2024-03-02T10:19:24;10.04;52.52
64924;HTU21D;51436;44.692;39.214;2024-03-02T10:21:55;10.08;52.53
64924;HTU21D;51436;44.692;39.214;2024-03-02T10:24:26;10.21;52.36
64924;HTU21D;51436;44.692;39.214;2024-03-02T10:26:53;10.29;52.28
64924;HTU21D;51436;44.692;39.214;2024-03-02T10:29:22;10.37;52.24
64924;HTU21D;51436;44.692;39.214;2024-03-02T10:31:49;10.48;52.14
64924;HTU21D;51436;44.692;39.214;2024-03-02T10:34:15;10.57;52.02
64924;HTU21D;51436;44.692;39.214;2024-03-02T10:36:44;10.67;51.92
64924;HTU21D;51436;44.692;39.214;2024-03-02T10:39:14;10.74;51.87
64924;HTU21D;51436;44.692;39.214;2024-03-02T10:41:41;10.80;51.85
64924;HTU21D;51436;44.692;39.214;2024-03-02T10:44:09;10.81;51.89
64924;HTU21D;51436;44.692;39.214;2024-03-02T10:46:37;10.83;51.90
64924;HTU21D;51436;44.692;39.214;2024-03-02T10:49:05;10.89;51.86
64924;HTU21D;51436;44.692;39.214;2024-03-02T10:51:33;10.92;51.83
64924;HTU21D;51436;44.692;39.214;2024-03-02T10:54:02;10.93;51.83
64924;HTU21D;51436;44.692;39.214;2024-03-02T10:56:42;10.97;51.82
64924;HTU21D;51436;44.692;39.214;2024-03-02T11:01:56;11.04;51.75
64924;HTU21D;51436;44.692;39.214;2024-03-02T11:04:25;11.07;51.69
64924;HTU21D;51436;44.692;39.214;2024-03-02T11:06:56;11.10;51.70
64924;HTU21D;51436;44.692;39.214;2024-03-02T11:09:27;11.18;51.61
64924;HTU21D;51436;44.692;39.214;2024-03-02T11:12:15;11.24;51.53
64924;HTU21D;51436;44.692;39.214;2024-03-02T11:14:45;11.27;51.49
64924;HTU21D;51436;44.692;39.214;2024-03-02T11:17:15;11.29;51.48
64924;HTU21D;51436;44.692;39.214;2024-03-02T11:19:43;11.25;51.57
64924;HTU21D;51436;44.692;39.214;2024-03-02T11:22:12;11.18;51.69
64924;HTU21D;51436;44.692;39.214;2024-03-02T11:24:38;11.13;51.79
64924;HTU21D;51436;44.692;39.214;2024-03-02T11:27:06;11.11;51.83
64924;HTU21D;51436;44.692;39.214;2024-03-02T11:32:04;11.11;51.81
64924;HTU21D;51436;44.692;39.214;2024-03-02T11:34:44;11.11;51.82
64924;HTU21D;51436;44.692;39.214;2024-03-02T11:37:19;11.08;51.85
64924;HTU21D;51436;44.692;39.214;2024-03-02T11:40:09;11.05;51.88
64924;HTU21D;51436;44.692;39.214;2024-03-02T11:43:02;11.05;51.88
64924;HTU21D;51436;44.692;39.214;2024-03-02T11:45:28;11.04;51.87
64924;HTU21D;51436;44.692;39.214;2024-03-02T11:47:57;11.07;51.85
64924;HTU21D;51436;44.692;39.214;2024-03-02T11:50:46;11.07;51.83
64924;HTU21D;51436;44.692;39.214;2024-03-02T11:53:13;11.09;51.79
64924;HTU21D;51436;44.692;39.214;2024-03-02T11:55:39;11.12;51.75
64924;HTU21D;51436;44.692;39.214;2024-03-02T11:58:16;11.15;51.70
64924;HTU21D;51436;44.692;39.214;2024-03-02T12:00:46;11.17;51.65
64924;HTU21D;51436;44.692;39.214;2024-03-02T12:03:14;11.19;51.62
64924;HTU21D;51436;44.692;39.214;2024-03-02T12:05:42;11.22;51.61
64924;HTU21D;51436;44.692;39.214;2024-03-02T12:08:11;11.23;51.59
64924;HTU21D;51436;44.692;39.214;2024-03-02T12:10:38;11.25;51.56
64924;HTU21D;51436;44.692;39.214;2024-03-02T12:13:06;11.27;51.54
64924;HTU21D;51436;44.692;39.214;2024-03-02T12:15:34;11.27;51.53
64924;HTU21D;51436;44.692;39.214;2024-03-02T12:18:03;11.30;51.51
64924;HTU21D;51436;44.692;39.214;2024-03-02T12:20:31;11.32;51.48
64924;HTU21D;51436;44.692;39.214;2024-03-02T12:23:00;11.31;51.49
64924;HTU21D;51436;44.692;39.214;2024-03-02T12:25:27;11.33;51.50
64924;HTU21D;51436;44.692;39.214;2024-03-02T12:27:56;11.34;51.50
64924;HTU21D;51436;44.692;39.214;2024-03-02T12:30:26;11.34;51.49
64924;HTU21D;51436;44.692;39.214;2024-03-02T12:33:21;11.34;51.49
64924;HTU21D;51436;44.692;39.214;2024-03-02T12:36:12;11.34;51.50
64924;HTU21D;51436;44.692;39.214;2024-03-02T12:39:00;11.34;51.47
64924;HTU21D;51436;44.692;39.214;2024-03-02T12:41:26;11.36;51.48
64924;HTU21D;51436;44.692;39.214;2024-03-02T12:43:52;11.36;51.47
64924;HTU21D;51436;44.692;39.214;2024-03-02T12:46:20;11.37;51.47
64924;HTU21D;51436;44.692;39.214;2024-03-02T12:48:46;11.37;51.47
64924;HTU21D;51436;44.692;39.214;2024-03-02T12:51:13;11.37;51.49
64924;HTU21D;51436;44.692;39.214;2024-03-02T12:53:40;11.38;51.50
64924;HTU21D;51436;44.692;39.214;2024-03-02T12:56:08;11.36;51.49
64924;HTU21D;51436;44.692;39.214;2024-03-02T12:58:40;11.39;51.49
64924;HTU21D;51436;44.692;39.214;2024-03-02T13:01:10;11.40;51.48
64924;HTU21D;51436;44.692;39.214;2024-03-02T13:03:38;11.40;51.48
64924;HTU21D;51436;44.692;39.214;2024-03-02T13:06:06;11.39;51.50
64924;HTU21D;51436;44.692;39.214;2024-03-02T13:08:36;11.40;51.51
64924;HTU21D;51436;44.692;39.214;2024-03-02T13:11:02;11.40;51.50
64924;HTU21D;51436;44.692;39.214;2024-03-02T13:13:32;11.39;51.53
64924;HTU21D;51436;44.692;39.214;2024-03-02T13:16:01;11.40;51.52
64924;HTU21D;51436;44.692;39.214;2024-03-02T13:18:29;11.40;51.53
64924;HTU21D;51436;44.692;39.214;2024-03-02T13:20:55;11.40;51.56
64924;HTU21D;51436;44.692;39.214;2024-03-02T13:23:23;11.39;51.56
64924;HTU21D;51436;44.692;39.214;2024-03-02T13:25:49;11.38;51.59
64924;HTU21D;51436;44.692;39.214;2024-03-02T13:28:15;11.37;51.62
64924;HTU21D;51436;44.692;39.214;2024-03-02T13:30:42;11.36;51.62
64924;HTU21D;51436;44.692;39.214;2024-03-02T13:33:09;11.34;51.66
64924;HTU21D;51436;44.692;39.214;2024-03-02T13:35:35;11.32;51.69
64924;HTU21D;51436;44.692;39.214;2024-03-02T13:38:03;11.31;51.72
64924;HTU21D;51436;44.692;39.214;2024-03-02T13:40:30;11.30;51.74
64924;HTU21D;51436;44.692;39.214;2024-03-02T13:43:02;11.27;51.77
64924;HTU21D;51436;44.692;39.214;2024-03-02T13:45:29;11.26;51.81
64924;HTU21D;51436;44.692;39.214;2024-03-02T13:47:55;11.23;51.83
64924;HTU21D;51436;44.692;39.214;2024-03-02T13:50:22;11.20;51.88
64924;HTU21D;51436;44.692;39.214;2024-03-02T13:52:48;11.18;51.91
64924;HTU21D;51436;44.692;39.214;2024-03-02T13:55:14;11.16;51.96
64924;HTU21D;51436;44.692;39.214;2024-03-02T13:57:41;11.12;52.03
64924;HTU21D;51436;44.692;39.214;2024-03-02T14:00:30;11.07;52.07
64924;HTU21D;51436;44.692;39.214;2024-03-02T14:02:57;11.02;52.14
64924;HTU21D;51436;44.692;39.214;2024-03-02T14:05:23;10.97;52.19
64924;HTU21D;51436;44.692;39.214;2024-03-02T14:07:50;10.96;52.20
64924;HTU21D;51436;44.692;39.214;2024-03-02T14:10:16;10.94;52.23
64924;HTU21D;51436;44.692;39.214;2024-03-02T14:12:43;10.89;52.29
64924;HTU21D;51436;44.692;39.214;2024-03-02T14:15:10;10.85;52.34
64924;HTU21D;51436;44.692;39.214;2024-03-02T14:17:36;10.82;52.40
64924;HTU21D;51436;44.692;39.214;2024-03-02T14:20:08;10.77;52.44
64924;HTU21D;51436;44.692;39.214;2024-03-02T14:22:48;10.70;52.52
64924;HTU21D;51436;44.692;39.214;2024-03-02T14:25:15;10.67;52.56
64924;HTU21D;51436;44.692;39.214;2024-03-02T14:27:42;10.60;52.61
64924;HTU21D;51436;44.692;39.214;2024-03-02T14:30:09;10.56;52.68
64924;HTU21D;51436;44.692;39.214;2024-03-02T14:32:36;10.50;52.75
64924;HTU21D;51436;44.692;39.214;2024-03-02T14:35:03;10.44;52.82
64924;HTU21D;51436;44.692;39.214;2024-03-02T14:37:29;10.39;52.88
64924;HTU21D;51436;44.692;39.214;2024-03-02T14:39:55;10.31;52.96
64924;HTU21D;51436;44.692;39.214;2024-03-02T14:42:25;10.26;53.04
64924;HTU21D;51436;44.692;39.214;2024-03-02T14:44:54;10.20;53.11
64924;HTU21D;51436;44.692;39.214;2024-03-02T14:47:21;10.14;53.19
64924;HTU21D;51436;44.692;39.214;2024-03-02T14:49:50;10.09;53.23
64924;HTU21D;51436;44.692;39.214;2024-03-02T14:52:17;10.03;53.30
64924;HTU21D;51436;44.692;39.214;2024-03-02T14:54:44;9.96;53.39
64924;HTU21D;51436;44.692;39.214;2024-03-02T14:57:11;9.90;53.44
64924;HTU21D;51436;44.692;39.214;2024-03-02T14:59:37;9.84;53.49
64924;HTU21D;51436;44.692;39.214;2024-03-02T15:02:04;9.81;53.54
64924;HTU21D;51436;44.692;39.214;2024-03-02T15:04:30;9.78;53.58
64924;HTU21D;51436;44.692;39.214;2024-03-02T15:06:56;9.74;53.60
64924;HTU21D;51436;44.692;39.214;2024-03-02T15:09:23;9.71;53.62
64924;HTU21D;51436;44.692;39.214;2024-03-02T15:11:49;9.68;53.65
64924;HTU21D;51436;44.692;39.214;2024-03-02T15:14:15;9.61;53.72
64924;HTU21D;51436;44.692;39.214;2024-03-02T15:16:42;9.56;53.81
64924;HTU21D;51436;44.692;39.214;2024-03-02T15:19:08;9.51;53.84
64924;HTU21D;51436;44.692;39.214;2024-03-02T15:21:35;9.47;53.91
64924;HTU21D;51436;44.692;39.214;2024-03-02T15:24:01;9.42;53.92
64924;HTU21D;51436;44.692;39.214;2024-03-02T15:26:27;9.39;53.98
64924;HTU21D;51436;44.692;39.214;2024-03-02T15:28:57;9.36;54.00
64924;HTU21D;51436;44.692;39.214;2024-03-02T15:31:25;9.33;54.04